Oyster, Virginia
Current Conditions -  °F | °C
As of 3:55 PM on Thursday 23 Oct 2014 (Local Time) from KMFV Reporting Station
Overcast Overcast  
Wind Chill: 61°   Ceiling: 4100
Heat Index: 61°   Visibility: 10mi
Dew Point: 45°   Wind: 18mph
Humidity: 55%   Direction: 310°NW
Pressure: 29.8"   Gusts: 25mph
Location:  37.29°N, 75.92°W
Report Text: KMFV 231955Z AUTO 31016G22KT 10SM OVC041 16/07 A2980 RMK AO2
Loading
Personal Weather Stations






























Interactive Weather Map
Tropical Storm Tracking
New forecast layout! Learn more

10-Day Weather Forecast

Advertisements
Track Severe Weather on mobile